createdAt,value
2019-01-29T00:00:54.099Z,0.97
2019-01-29T00:03:23.097Z,1.02
2019-01-29T00:05:50.469Z,1.04
2019-01-29T00:08:19.473Z,1.08
2019-01-29T00:10:46.675Z,1.13
2019-01-29T00:13:14.868Z,1.17
2019-01-29T00:15:42.087Z,1.22
2019-01-29T00:18:09.372Z,1.26
2019-01-29T00:20:37.883Z,1.29
2019-01-29T00:23:07.720Z,1.31
2019-01-29T00:25:36.152Z,1.35
2019-01-29T00:28:06.088Z,1.37
2019-01-29T00:30:33.297Z,1.38
2019-01-29T00:33:02.275Z,1.37
2019-01-29T00:35:29.491Z,1.37
2019-01-29T00:37:58.416Z,1.38
2019-01-29T00:40:25.538Z,1.39
2019-01-29T00:42:54.793Z,1.39
2019-01-29T00:45:23.369Z,1.41
2019-01-29T00:47:50.464Z,1.41
2019-01-29T00:50:17.712Z,1.41
2019-01-29T00:52:46.795Z,1.42
2019-01-29T00:55:14.758Z,1.43
2019-01-29T00:57:42.313Z,1.46
2019-01-29T01:00:16.209Z,1.47
2019-01-29T01:02:43.403Z,1.46
2019-01-29T01:05:10.909Z,1.47
2019-01-29T01:07:39.775Z,1.49
2019-01-29T01:10:08.616Z,1.50
2019-01-29T01:12:35.885Z,1.49
2019-01-29T01:15:05.111Z,1.49
2019-01-29T01:17:32.449Z,1.49
2019-01-29T01:19:59.790Z,1.50
2019-01-29T01:22:27.013Z,1.48
2019-01-29T01:24:55.974Z,1.50
2019-01-29T01:27:23.189Z,1.50
2019-01-29T01:29:52.216Z,1.50
2019-01-29T01:32:23.120Z,1.50
2019-01-29T01:34:51.430Z,1.51
2019-01-29T01:37:18.858Z,1.49
2019-01-29T01:39:47.371Z,1.51
2019-01-29T01:42:14.495Z,1.49
2019-01-29T01:44:43.409Z,1.49
2019-01-29T01:47:10.845Z,1.47
2019-01-29T01:49:38.088Z,1.47
2019-01-29T01:52:05.346Z,1.47
2019-01-29T01:54:33.507Z,1.43
2019-01-29T01:57:00.881Z,1.42
2019-01-29T01:59:29.975Z,1.41
2019-01-29T02:01:57.169Z,1.41
2019-01-29T02:04:24.550Z,1.43
2019-01-29T02:06:53.510Z,1.42
2019-01-29T02:09:20.955Z,1.42
2019-01-29T02:11:48.193Z,1.42
2019-01-29T02:14:15.422Z,1.43
2019-01-29T02:16:42.792Z,1.42
2019-01-29T02:19:09.922Z,1.43
2019-01-29T02:21:37.127Z,1.42
2019-01-29T02:24:04.418Z,1.43
2019-01-29T02:26:31.811Z,1.43
2019-01-29T02:29:00.024Z,1.43
2019-01-29T02:31:27.359Z,1.43
2019-01-29T02:33:56.391Z,1.42
2019-01-29T02:36:25.392Z,1.42
2019-01-29T02:38:52.786Z,1.42
2019-01-29T02:41:20.039Z,1.42
2019-01-29T02:43:47.234Z,1.40
2019-01-29T02:46:14.646Z,1.39
2019-01-29T02:48:42.106Z,1.38
2019-01-29T02:51:09.425Z,1.39
2019-01-29T02:53:36.738Z,1.39
2019-01-29T02:56:04.278Z,1.40
2019-01-29T02:58:32.415Z,1.40
2019-01-29T03:00:59.809Z,1.39
2019-01-29T03:03:27.010Z,1.39
2019-01-29T03:05:55.216Z,1.39
2019-01-29T03:08:22.433Z,1.40
2019-01-29T03:10:50.663Z,1.40
2019-01-29T03:13:20.696Z,1.41
2019-01-29T03:15:48.899Z,1.41
2019-01-29T03:18:16.283Z,1.41
2019-01-29T03:20:45.240Z,1.38
2019-01-29T03:23:12.441Z,1.37
2019-01-29T03:25:39.547Z,1.36
2019-01-29T03:28:06.769Z,1.36
2019-01-29T03:30:33.867Z,1.36
2019-01-29T03:33:02.886Z,1.36
2019-01-29T03:35:29.988Z,1.35
2019-01-29T03:37:57.313Z,1.36
2019-01-29T03:40:25.915Z,1.37
2019-01-29T03:42:54.927Z,1.36
2019-01-29T03:45:22.557Z,1.37
2019-01-29T03:47:51.577Z,1.36
2019-01-29T03:50:19.807Z,1.37
2019-01-29T03:52:47.094Z,1.37
2019-01-29T03:55:14.613Z,1.38
2019-01-29T03:57:42.931Z,1.38
2019-01-29T04:00:15.379Z,1.38
2019-01-29T04:02:42.644Z,1.37
2019-01-29T04:05:09.744Z,1.35
2019-01-29T04:07:37.124Z,1.34
2019-01-29T04:10:05.616Z,1.33
2019-01-29T04:12:33.788Z,1.34
2019-01-29T04:15:01.031Z,1.33
2019-01-29T04:17:28.412Z,1.35
2019-01-29T04:19:55.506Z,1.34
2019-01-29T04:22:23.603Z,1.31
2019-01-29T04:24:52.026Z,1.31
2019-01-29T04:27:19.247Z,1.28
2019-01-29T04:29:46.351Z,1.27
2019-01-29T04:32:13.584Z,1.26
2019-01-29T04:34:40.924Z,1.25
2019-01-29T04:37:08.280Z,1.25
2019-01-29T04:39:36.665Z,1.25
2019-01-29T04:42:04.558Z,1.24
2019-01-29T04:44:31.785Z,1.22
2019-01-29T04:47:00.709Z,1.22
2019-01-29T04:49:27.926Z,1.22
2019-01-29T04:51:58.136Z,1.19
2019-01-29T04:54:25.395Z,1.19
2019-01-29T04:56:52.761Z,1.19
2019-01-29T04:59:20.974Z,1.19
2019-01-29T05:01:49.179Z,1.19
2019-01-29T05:04:16.566Z,1.22
2019-01-29T05:06:43.919Z,1.21
2019-01-29T05:09:11.176Z,1.21
2019-01-29T05:11:39.604Z,1.21
2019-01-29T05:14:06.711Z,1.24
2019-01-29T05:16:33.816Z,1.24
2019-01-29T05:19:00.928Z,1.25
2019-01-29T05:21:28.023Z,1.26
2019-01-29T05:23:55.125Z,1.29
2019-01-29T05:26:22.213Z,1.28
2019-01-29T05:28:49.309Z,1.29
2019-01-29T05:31:16.427Z,1.27
2019-01-29T05:33:43.517Z,1.28
2019-01-29T05:36:10.613Z,1.28
2019-01-29T05:38:37.701Z,1.29
2019-01-29T05:41:04.797Z,1.26
2019-01-29T05:43:31.889Z,1.23
2019-01-29T05:45:58.982Z,1.22
2019-01-29T05:48:26.104Z,1.20
2019-01-29T05:50:53.241Z,1.19
2019-01-29T05:53:20.328Z,1.22
2019-01-29T05:55:47.441Z,1.22
2019-01-29T05:58:14.594Z,1.24
2019-01-29T06:00:41.694Z,1.24
2019-01-29T06:03:08.796Z,1.23
2019-01-29T06:05:35.891Z,1.23
2019-01-29T06:08:05.154Z,1.23
2019-01-29T06:10:32.233Z,1.23
2019-01-29T06:12:59.339Z,1.24
2019-01-29T06:15:26.429Z,1.22
2019-01-29T06:17:53.546Z,1.22
2019-01-29T06:20:22.030Z,1.23
2019-01-29T06:22:49.245Z,1.23
2019-01-29T06:25:16.863Z,1.22
2019-01-29T06:27:44.234Z,1.22
2019-01-29T06:30:12.821Z,1.21
2019-01-29T06:32:40.104Z,1.22
2019-01-29T06:35:10.669Z,1.21
2019-01-29T06:37:38.001Z,1.22
2019-01-29T06:40:06.497Z,1.23
2019-01-29T06:42:33.591Z,1.21
2019-01-29T06:45:01.013Z,1.19
2019-01-29T06:47:29.867Z,1.19
2019-01-29T06:49:57.269Z,1.21
2019-01-29T06:52:24.558Z,1.21
2019-01-29T06:54:52.789Z,1.23
2019-01-29T06:57:20.056Z,1.25
2019-01-29T06:59:47.249Z,1.27
2019-01-29T07:02:14.639Z,1.26
2019-01-29T07:04:42.840Z,1.27
2019-01-29T07:07:10.179Z,1.28
2019-01-29T07:09:39.316Z,1.28
2019-01-29T07:12:06.623Z,1.29
2019-01-29T07:14:33.887Z,1.30
2019-01-29T07:17:25.849Z,1.29
2019-01-29T07:19:55.456Z,1.30
2019-01-29T07:22:22.873Z,1.28
2019-01-29T07:24:49.974Z,1.26
2019-01-29T07:27:17.299Z,1.26
2019-01-29T07:29:47.481Z,1.25
2019-01-29T07:32:15.846Z,1.23
2019-01-29T07:34:44.791Z,1.23
2019-01-29T07:37:12.275Z,1.22
2019-01-29T07:39:39.629Z,1.21
2019-01-29T07:42:08.733Z,1.19
2019-01-29T07:44:35.838Z,1.17
2019-01-29T07:47:03.050Z,1.21
2019-01-29T07:49:30.163Z,1.23
2019-01-29T07:51:57.530Z,1.27
2019-01-29T07:54:33.217Z,1.30
2019-01-29T07:56:56.038Z,1.34
2019-01-29T07:59:32.611Z,1.37
2019-01-29T08:01:54.725Z,1.39
2019-01-29T08:04:23.921Z,1.41
2019-01-29T08:06:52.346Z,1.46
2019-01-29T08:09:19.725Z,1.47
2019-01-29T08:11:47.104Z,1.46
2019-01-29T08:14:14.333Z,1.43
2019-01-29T08:16:41.612Z,1.39
2019-01-29T08:19:09.844Z,1.37
2019-01-29T08:21:37.137Z,1.35
2019-01-29T08:24:04.501Z,1.37
2019-01-29T08:26:31.788Z,1.39
2019-01-29T08:28:59.239Z,1.37
2019-01-29T08:31:26.462Z,1.38
2019-01-29T08:33:55.390Z,1.37
2019-01-29T08:36:22.830Z,1.37
2019-01-29T08:38:51.886Z,1.36
2019-01-29T08:41:22.601Z,1.35
2019-01-29T08:43:49.897Z,1.24
2019-01-29T08:46:17.185Z,1.10
2019-01-29T08:48:45.359Z,0.98
2019-01-29T08:51:13.588Z,0.90
2019-01-29T08:53:43.323Z,0.82
2019-01-29T08:56:12.372Z,0.76
2019-01-29T08:58:41.434Z,0.71
2019-01-29T09:01:08.874Z,0.69
2019-01-29T09:03:36.193Z,0.70
2019-01-29T09:06:03.599Z,0.71
2019-01-29T09:08:30.729Z,0.73
2019-01-29T09:10:58.122Z,0.72
2019-01-29T09:13:30.589Z,0.71
2019-01-29T09:15:59.711Z,0.74
2019-01-29T09:18:26.914Z,0.75
2019-01-29T09:20:54.008Z,0.75
2019-01-29T09:23:21.107Z,0.74
2019-01-29T09:25:48.208Z,0.75
2019-01-29T09:28:18.482Z,0.76
2019-01-29T09:30:44.366Z,0.76
2019-01-29T09:33:13.119Z,0.75
2019-01-29T09:35:43.924Z,0.70
2019-01-29T09:38:11.309Z,0.64
2019-01-29T09:40:38.612Z,0.55
2019-01-29T09:43:06.993Z,0.44
2019-01-29T09:45:34.336Z,0.36
2019-01-29T09:48:03.423Z,0.32
2019-01-29T09:50:30.530Z,0.21
2019-01-29T09:52:57.677Z,0.16
2019-01-29T09:55:29.451Z,0.14
2019-01-29T09:57:53.763Z,0.11
2019-01-29T10:00:24.276Z,0.11
2019-01-29T10:02:51.392Z,0.12
2019-01-29T10:05:18.520Z,0.11
2019-01-29T10:07:45.610Z,0.06
2019-01-29T10:10:12.945Z,0.01
2019-01-29T10:12:40.073Z,-0.08
2019-01-29T10:15:10.009Z,-0.12
2019-01-29T10:17:37.104Z,-0.17
2019-01-29T10:20:04.507Z,-0.21
2019-01-29T10:22:31.597Z,-0.21
2019-01-29T10:24:58.705Z,-0.26
2019-01-29T10:27:25.806Z,-0.29
2019-01-29T10:29:52.909Z,-0.31
2019-01-29T10:32:20.060Z,-0.33
2019-01-29T10:34:47.154Z,-0.36
2019-01-29T10:37:14.281Z,-0.37
2019-01-29T10:39:41.407Z,-0.41
2019-01-29T10:42:08.518Z,-0.45
2019-01-29T10:44:35.614Z,-0.51
2019-01-29T10:47:03.345Z,-0.54
2019-01-29T10:49:30.432Z,-0.59
2019-01-29T10:51:57.545Z,-0.60
2019-01-29T10:54:24.632Z,-0.60
2019-01-29T10:56:51.774Z,-0.60
2019-01-29T10:59:18.859Z,-0.65
2019-01-29T11:01:45.977Z,-0.69
2019-01-29T11:04:13.063Z,-0.71
2019-01-29T11:06:40.170Z,-0.72
2019-01-29T11:09:11.343Z,-0.70
2019-01-29T11:11:38.443Z,-0.69
2019-01-29T11:14:05.545Z,-0.68
2019-01-29T11:16:32.636Z,-0.68
2019-01-29T11:19:03.375Z,-0.65
2019-01-29T11:21:28.857Z,-0.65
2019-01-29T11:23:55.956Z,-0.68
2019-01-29T11:26:23.059Z,-0.70
2019-01-29T11:28:50.216Z,-0.70
2019-01-29T11:31:17.520Z,-0.70
2019-01-29T11:33:44.630Z,-0.70
2019-01-29T11:36:11.844Z,-0.73
2019-01-29T11:38:38.972Z,-0.74
2019-01-29T11:41:06.073Z,-0.73
2019-01-29T11:43:33.171Z,-0.70
2019-01-29T11:46:00.387Z,-0.68
2019-01-29T11:48:27.523Z,-0.66
2019-01-29T11:50:54.615Z,-0.65
2019-01-29T11:53:21.732Z,-0.63
2019-01-29T11:55:48.845Z,-0.62
2019-01-29T11:58:15.939Z,-0.60
2019-01-29T12:00:47.135Z,-0.61
2019-01-29T12:03:14.701Z,-0.64
2019-01-29T12:05:41.799Z,-0.61
2019-01-29T12:08:08.909Z,-0.66
2019-01-29T12:10:36.128Z,-0.68
2019-01-29T12:13:04.135Z,-0.72
2019-01-29T12:15:31.234Z,-0.74
2019-01-29T12:17:58.341Z,-0.74
2019-01-29T12:20:25.447Z,-0.74
2019-01-29T12:22:52.541Z,-0.76
2019-01-29T12:25:19.648Z,-0.77
2019-01-29T12:27:46.851Z,-0.75
2019-01-29T12:30:17.230Z,-0.76
2019-01-29T12:32:44.548Z,-0.74
2019-01-29T12:35:11.744Z,-0.74
2019-01-29T12:37:38.856Z,-0.73
2019-01-29T12:40:06.652Z,-0.71
2019-01-29T12:42:33.773Z,-0.66
2019-01-29T12:45:00.975Z,-0.66
2019-01-29T12:47:28.289Z,-0.66
2019-01-29T12:49:55.351Z,-0.65
2019-01-29T12:52:28.824Z,-0.65
2019-01-29T12:54:55.925Z,-0.67
2019-01-29T12:57:23.039Z,-0.67
2019-01-29T12:59:51.458Z,-0.68
2019-01-29T13:02:18.646Z,-0.70
2019-01-29T13:04:45.754Z,-0.70
2019-01-29T13:07:12.881Z,-0.70
2019-01-29T13:09:39.971Z,-0.69
2019-01-29T13:12:07.087Z,-0.69
2019-01-29T13:14:34.209Z,-0.69
2019-01-29T13:17:01.325Z,-0.67
2019-01-29T13:19:28.467Z,-0.68
2019-01-29T13:21:55.567Z,-0.67
2019-01-29T13:24:22.704Z,-0.67
2019-01-29T13:26:49.834Z,-0.68
2019-01-29T13:29:16.931Z,-0.69
2019-01-29T13:31:44.077Z,-0.72
2019-01-29T13:34:11.283Z,-0.73
2019-01-29T13:36:38.388Z,-0.73
2019-01-29T13:39:07.591Z,-0.73
2019-01-29T13:41:34.695Z,-0.73
2019-01-29T13:44:01.808Z,-0.72
2019-01-29T13:46:28.909Z,-0.70
2019-01-29T13:48:56.045Z,-0.71
2019-01-29T13:51:23.142Z,-0.74
2019-01-29T13:53:50.249Z,-0.76
2019-01-29T13:56:18.251Z,-0.78
2019-01-29T13:58:45.381Z,-0.76
2019-01-29T14:01:12.478Z,-0.75
2019-01-29T14:03:39.581Z,-0.73
2019-01-29T14:06:06.705Z,-0.70
2019-01-29T14:08:33.807Z,-0.65
2019-01-29T14:11:01.008Z,-0.60
2019-01-29T14:13:28.105Z,-0.59
2019-01-29T14:15:56.727Z,-0.60
2019-01-29T14:18:25.899Z,-0.60
2019-01-29T14:20:53.021Z,-0.60
2019-01-29T14:23:20.163Z,-0.62
2019-01-29T14:25:47.299Z,-0.62
2019-01-29T14:28:14.491Z,-0.57
2019-01-29T14:30:41.586Z,-0.56
2019-01-29T14:33:08.699Z,-0.57
2019-01-29T14:35:35.819Z,-0.53
2019-01-29T14:38:44.878Z,-0.49
2019-01-29T14:41:12.503Z,-0.41
2019-01-29T14:43:41.772Z,-0.36
2019-01-29T14:46:08.902Z,-0.32
2019-01-29T14:48:36.256Z,-0.29
2019-01-29T14:51:03.613Z,-0.26
2019-01-29T14:53:32.127Z,-0.22
2019-01-29T14:55:59.457Z,-0.21
2019-01-29T14:58:27.709Z,-0.20
2019-01-29T15:00:55.279Z,-0.19
2019-01-29T15:03:22.472Z,-0.20
2019-01-29T15:05:52.585Z,-0.21
2019-01-29T15:08:19.903Z,-0.20
2019-01-29T15:10:47.190Z,-0.21
2019-01-29T15:13:14.348Z,-0.22
2019-01-29T15:15:47.067Z,-0.20
2019-01-29T15:18:19.087Z,-0.21
2019-01-29T15:20:48.089Z,-0.19
2019-01-29T15:23:15.628Z,-0.17
2019-01-29T15:25:43.991Z,-0.20
2019-01-29T15:28:11.075Z,-0.22
2019-01-29T15:30:38.405Z,-0.22
2019-01-29T15:33:05.866Z,-0.21
2019-01-29T15:35:33.103Z,-0.23
2019-01-29T15:38:00.245Z,-0.22
2019-01-29T15:40:27.309Z,-0.22
2019-01-29T15:42:56.130Z,-0.22
2019-01-29T15:45:23.956Z,-0.22
2019-01-29T15:47:51.067Z,-0.23
2019-01-29T15:50:19.805Z,-0.24
2019-01-29T15:52:48.662Z,-0.25
2019-01-29T15:55:16.352Z,-0.27
2019-01-29T15:57:44.196Z,-0.30
2019-01-29T16:00:17.830Z,-0.31
2019-01-29T16:02:44.941Z,-0.31
2019-01-29T16:05:14.211Z,-0.30
2019-01-29T16:07:41.328Z,-0.32
2019-01-29T16:10:11.140Z,-0.34
2019-01-29T16:12:38.254Z,-0.34
2019-01-29T16:15:05.707Z,-0.35
2019-01-29T16:17:32.853Z,-0.36
2019-01-29T16:19:59.980Z,-0.38
2019-01-29T16:22:27.083Z,-0.38
2019-01-29T16:24:54.173Z,-0.37
2019-01-29T16:27:22.754Z,-0.36
2019-01-29T16:29:50.221Z,-0.34
2019-01-29T16:32:17.337Z,-0.36
2019-01-29T16:34:44.474Z,-0.36
2019-01-29T16:37:11.563Z,-0.39
2019-01-29T16:39:38.685Z,-0.42
2019-01-29T16:42:08.474Z,-0.41
2019-01-29T16:44:35.607Z,-0.43
2019-01-29T16:47:02.986Z,-0.44
2019-01-29T16:49:30.050Z,-0.43
2019-01-29T16:51:57.155Z,-0.44
2019-01-29T16:54:27.371Z,-0.46
2019-01-29T16:56:54.476Z,-0.46
2019-01-29T16:59:21.587Z,-0.46
2019-01-29T17:01:48.721Z,-0.46
2019-01-29T17:04:15.832Z,-0.48
2019-01-29T17:06:42.928Z,-0.50
2019-01-29T17:09:11.198Z,-0.51
2019-01-29T17:11:38.302Z,-0.52
2019-01-29T17:14:05.402Z,-0.53
2019-01-29T17:16:32.540Z,-0.52
2019-01-29T17:18:59.642Z,-0.56
2019-01-29T17:21:26.731Z,-0.55
2019-01-29T17:23:53.898Z,-0.56
2019-01-29T17:26:21.023Z,-0.56
2019-01-29T17:28:48.209Z,-0.55
2019-01-29T17:31:15.323Z,-0.57
2019-01-29T17:33:42.471Z,-0.56
2019-01-29T17:36:09.585Z,-0.58
2019-01-29T17:38:44.383Z,-0.57
2019-01-29T17:41:05.704Z,-0.56
2019-01-29T17:43:32.804Z,-0.55
2019-01-29T17:45:59.907Z,-0.55
2019-01-29T17:48:27.025Z,-0.57
2019-01-29T17:50:54.147Z,-0.55
2019-01-29T17:53:21.240Z,-0.55
2019-01-29T17:55:48.365Z,-0.56
2019-01-29T17:58:15.495Z,-0.60
2019-01-29T18:00:53.011Z,-0.61
2019-01-29T18:03:20.160Z,-0.60
2019-01-29T18:05:47.515Z,-0.65
2019-01-29T18:08:14.652Z,-0.67
2019-01-29T18:10:44.414Z,-0.67
2019-01-29T18:13:11.520Z,-0.67
2019-01-29T18:15:38.643Z,-0.68
2019-01-29T18:18:05.943Z,-0.67
2019-01-29T18:20:36.117Z,-0.68
2019-01-29T18:23:05.738Z,-0.68
2019-01-29T18:25:32.472Z,-0.68
2019-01-29T18:28:01.438Z,-0.67
2019-01-29T18:30:32.081Z,-0.68
2019-01-29T18:32:59.149Z,-0.68
2019-01-29T18:35:26.355Z,-0.68
2019-01-29T18:37:54.572Z,-0.67
2019-01-29T18:40:24.479Z,-0.70
2019-01-29T18:42:51.671Z,-0.71
2019-01-29T18:45:18.772Z,-0.73
2019-01-29T18:47:45.912Z,-0.72
2019-01-29T18:50:14.227Z,-0.74
2019-01-29T18:52:41.363Z,-0.76
2019-01-29T18:55:09.311Z,-0.75
2019-01-29T18:57:36.409Z,-0.74
2019-01-29T19:00:05.319Z,-0.74
2019-01-29T19:02:32.482Z,-0.76
2019-01-29T19:04:59.614Z,-0.74
2019-01-29T19:07:26.721Z,-0.75
2019-01-29T19:09:53.825Z,-0.75
2019-01-29T19:12:20.956Z,-0.76
2019-01-29T19:14:48.056Z,-0.77
2019-01-29T19:17:15.212Z,-0.80
2019-01-29T19:19:42.375Z,-0.81
2019-01-29T19:22:09.469Z,-0.83
2019-01-29T19:24:36.613Z,-0.86
2019-01-29T19:27:03.761Z,-0.87
2019-01-29T19:29:31.225Z,-0.91
2019-01-29T19:31:58.343Z,-0.92
2019-01-29T19:34:25.476Z,-0.91
2019-01-29T19:36:52.575Z,-0.91
2019-01-29T19:39:19.718Z,-0.92
2019-01-29T19:41:46.947Z,-0.94
2019-01-29T19:44:14.058Z,-0.96
2019-01-29T19:46:42.381Z,-0.99
2019-01-29T19:49:11.433Z,-0.99
2019-01-29T19:51:38.908Z,-1.02
2019-01-29T19:54:06.147Z,-1.03
2019-01-29T19:56:33.488Z,-1.04
2019-01-29T19:59:01.237Z,-1.10
2019-01-29T20:01:28.476Z,-1.11
2019-01-29T20:03:58.528Z,-1.13
2019-01-29T20:06:25.857Z,-1.16
2019-01-29T20:08:55.962Z,-1.21
2019-01-29T20:11:24.654Z,-1.22
2019-01-29T20:13:53.808Z,-1.25
2019-01-29T20:16:21.223Z,-1.27
2019-01-29T20:18:49.139Z,-1.29
2019-01-29T20:21:16.603Z,-1.31
2019-01-29T20:23:44.873Z,-1.30
2019-01-29T20:26:12.461Z,-1.28
2019-01-29T20:28:42.439Z,-1.31
2019-01-29T20:31:08.893Z,-1.32
2019-01-29T20:33:36.247Z,-1.35
2019-01-29T20:36:05.151Z,-1.38
2019-01-29T20:38:35.301Z,-1.42
2019-01-29T20:41:04.247Z,-1.47
2019-01-29T20:43:32.533Z,-1.50
2019-01-29T20:46:01.436Z,-1.52
2019-01-29T20:48:28.842Z,-1.53
2019-01-29T20:50:57.066Z,-1.51
2019-01-29T20:53:24.287Z,-1.51
2019-01-29T20:55:51.617Z,-1.55
2019-01-29T20:58:18.884Z,-1.58
2019-01-29T21:00:47.340Z,-1.64
2019-01-29T21:03:15.679Z,-1.67
2019-01-29T21:05:42.896Z,-1.68
2019-01-29T21:08:11.906Z,-1.74
2019-01-29T21:10:39.204Z,-1.79
2019-01-29T21:13:06.314Z,-1.80
2019-01-29T21:15:38.560Z,-1.83
2019-01-29T21:18:02.859Z,-1.85
2019-01-29T21:20:30.423Z,-1.87
2019-01-29T21:22:57.822Z,-1.88
2019-01-29T21:25:25.096Z,-1.89
2019-01-29T21:27:53.487Z,-1.93
2019-01-29T21:30:26.257Z,-1.95
2019-01-29T21:32:53.456Z,-1.99
2019-01-29T21:35:20.664Z,-1.99
2019-01-29T21:37:49.664Z,-1.99
2019-01-29T21:40:18.284Z,-2.01
2019-01-29T21:42:46.707Z,-2.00
2019-01-29T21:45:14.349Z,-2.02
2019-01-29T21:47:45.241Z,-2.04
2019-01-29T21:50:17.311Z,-2.04
2019-01-29T21:52:46.216Z,-2.09
2019-01-29T21:55:15.492Z,-2.07
2019-01-29T21:57:42.639Z,-2.06
2019-01-29T22:00:19.787Z,-2.05
2019-01-29T22:02:47.359Z,-2.07
2019-01-29T22:05:14.681Z,-2.06
2019-01-29T22:07:41.920Z,-2.09
2019-01-29T22:10:09.627Z,-2.10
2019-01-29T22:12:36.732Z,-2.11
2019-01-29T22:15:07.617Z,-2.10
2019-01-29T22:17:34.713Z,-2.10
2019-01-29T22:20:02.092Z,-2.09
2019-01-29T22:22:32.586Z,-2.11
2019-01-29T22:24:59.932Z,-2.11
2019-01-29T22:27:29.959Z,-2.13
2019-01-29T22:29:57.244Z,-2.15
2019-01-29T22:32:24.633Z,-2.17
2019-01-29T22:34:53.556Z,-2.17
2019-01-29T22:37:20.784Z,-2.17
2019-01-29T22:39:47.932Z,-2.17
2019-01-29T22:42:16.882Z,-2.15
2019-01-29T22:44:44.323Z,-2.14
2019-01-29T22:47:12.536Z,-2.13
2019-01-29T22:49:39.700Z,-2.15
2019-01-29T22:52:06.992Z,-2.25
2019-01-29T22:54:34.190Z,-2.27
2019-01-29T22:57:02.687Z,-2.27
2019-01-29T22:59:33.316Z,-2.30
2019-01-29T23:01:59.176Z,-2.43
2019-01-29T23:04:30.075Z,-2.50
2019-01-29T23:07:21.734Z,-2.49
2019-01-29T23:09:48.887Z,-2.45
2019-01-29T23:12:15.948Z,-2.46
2019-01-29T23:14:43.052Z,-2.55
2019-01-29T23:17:10.242Z,-2.53
2019-01-29T23:19:38.474Z,-2.58
2019-01-29T23:22:06.660Z,-2.70
2019-01-29T23:24:33.745Z,-2.72
2019-01-29T23:27:00.940Z,-2.73
2019-01-29T23:29:29.885Z,-2.72
2019-01-29T23:31:58.119Z,-2.74
2019-01-29T23:34:26.328Z,-2.86
2019-01-29T23:36:53.524Z,-2.94
2019-01-29T23:39:24.279Z,-2.94
2019-01-29T23:41:51.452Z,-2.90
2019-01-29T23:44:18.832Z,-2.83
2019-01-29T23:46:47.752Z,-2.84
2019-01-29T23:49:14.988Z,-2.84
2019-01-29T23:51:42.182Z,-2.90
2019-01-29T23:54:09.486Z,-2.93
2019-01-29T23:56:36.580Z,-2.94
2019-01-29T23:59:04.452Z,-2.95
